This is the latest recevied weather packets stored in our database for station/object OM0AGP-15. If no packets are shown the sender has not sent any weather packets the latest 10 day(s).
| Time | Temp. | Humidity | Pressure | Rain* | Wind** | Luminosity | Snow |
|---|---|---|---|---|---|---|---|
| 1777804938 | 16.67° C | 32% | 1020.4 hPa | - | - | - | - |
| 1777804038 | 16.67° C | 35% | 1020.6 hPa | - | - | - | - |
| 1777803138 | 16.67° C | 33% | 1020.7 hPa | - | - | - | - |
| 1777802238 | 16.67° C | 31% | 1020.7 hPa | - | - | - | - |
| 1777801338 | 16.67° C | 32% | 1020.9 hPa | - | - | - | - |
| 1777800438 | 16.11° C | 33% | 1021 hPa | - | - | - | - |
| 1777799538 | 16.11° C | 37% | 1021 hPa | - | - | - | - |
| 1777798638 | 16.11° C | 37% | 1021.2 hPa | - | - | - | - |
| 1777797738 | 15.56° C | 37% | 1021.2 hPa | - | - | - | - |
| 1777796837 | 15.56° C | 41% | 1021.3 hPa | - | - | - | - |
| 1777795937 | 15° C | 39% | 1021.3 hPa | - | - | - | - |
| 1777795037 | 15° C | 39% | 1021.3 hPa | - | - | - | - |
| 1777794137 | 16.11° C | 37% | 1021.3 hPa | - | - | - | - |
| 1777793237 | 16.67° C | 36% | 1021.5 hPa | - | - | - | - |
| 1777792337 | 17.22° C | 35% | 1021.5 hPa | - | - | - | - |
| 1777791437 | 17.78° C | 34% | 1021.6 hPa | - | - | - | - |
| 1777790537 | 17.78° C | 32% | 1021.6 hPa | - | - | - | - |
| 1777789637 | 17.22° C | 35% | 1021.7 hPa | - | - | - | - |
| 1777788736 | 17.22° C | 35% | 1021.6 hPa | - | - | - | - |
| 1777787836 | 17.22° C | 35% | 1021.5 hPa | - | - | - | - |
| 1777786936 | 16.67° C | 36% | 1021.7 hPa | - | - | - | - |
| 1777786036 | 15.56° C | 38% | 1021.6 hPa | - | - | - | - |
| 1777785136 | 13.89° C | 40% | 1021.6 hPa | - | - | - | - |
| 1777784236 | 11.67° C | 44% | 1021.8 hPa | - | - | - | - |
| 1777783336 | 9.44° C | 49% | 1021.8 hPa | - | - | - | - |
* Rain since midnight (hover to see other rain measurements)
** Current wind speed in m/s (hover to see current wind gust speed)